Latest Weather Observations for Nowra

IDN60801

Issued at 5:02 pm EDT Sunday 4 December 2016 (issued every 30 minutes, with the page automatically refreshed every 10 minutes)

About weather observations | Map of weather stations | Latest weather observations for NSW | Other Formats
Station Details ID: 068072 Name: NOWRA RAN AIR STATION AWS Lat: -34.95 Lon: 150.54 Height: 109.0 m
Data from the previous 72 hours. | See also: Recent months at Nowra
Date/Time
EDT
Temp
°C
App
Temp
°C
Dew
Point
°C
Rel
Hum
%
Delta-T
°C
Wind Press
QNH
hPa
Press
MSL
hPa
Rain since
9am
mm
Dir  Spd
km/h
Gust
km/h
Spd
kts
Gust
kts
04/04:30pm 25.9 25.2 18.6 64 4.7 E 20 28 11 15 1011.0 1010.7 0.0
04/04:00pm 25.8 24.9 18.2 63 4.8 E 20 28 11 15 1011.2 1010.9 0.0
04/03:30pm 26.3 25.2 18.7 63 4.9 ESE 22 28 12 15 1011.8 1011.5 0.0
04/03:00pm 25.9 24.2 18.1 62 4.9 ENE 24 32 13 17 1012.0 1011.7 0.0
04/02:30pm 24.2 22.7 17.7 67 4.1 E 22 28 12 15 1012.6 1012.3 0.0
04/02:00pm 24.3 22.3 17.5 66 4.3 ENE 24 30 13 16 1013.0 1012.6 0.0
04/01:30pm 25.8 24.7 17.7 61 5.1 E 20 32 11 17 1013.2 1012.8 0.0
04/01:00pm 26.2 24.7 17.8 60 5.3 E 22 30 12 16 1013.4 1013.0 0.0
04/12:30pm 25.6 24.3 17.3 60 5.2 ENE 20 28 11 15 1013.8 1013.4 0.0
04/12:00pm 26.7 25.5 17.5 57 5.8 ENE 20 28 11 15 1014.1 1013.7 0.0
04/11:30am 26.2 25.9 17.3 58 5.6 NE 15 22 8 12 1014.5 1014.1 0.0
04/11:00am 26.4 26.8 17.2 57 5.8 NNE 11 20 6 11 1014.5 1014.1 0.0
04/10:30am 25.4 25.9 16.5 58 5.5 NE 9 13 5 7 1014.9 1014.5 0.0
04/10:00am 23.7 24.4 16.0 62 4.7 NE 7 13 4 7 1015.2 1014.8 0.0
04/09:30am 22.9 24.2 16.2 66 4.1 NNW 4 11 2 6 1015.3 1014.9 0.0
04/09:00am 21.9 22.0 15.5 67 3.8 NW 9 17 5 9 1015.7 1015.3 0.0
04/08:51am 22.1 22.3 15.7 67 3.9 N 9 13 5 7 1015.6 1015.2 0.0
04/08:37am 22.0 22.1 15.6 67 3.8 N 9 13 5 7 1015.6 1015.2 0.0
04/08:30am 21.7 22.3 15.8 69 3.6 WNW 7 11 4 6 1015.7 1015.3 0.0
04/08:00am 20.4 22.2 17.4 83 1.8 NNW 4 9 2 5 1015.9 1015.6 0.0
04/07:38am 19.4 22.0 17.5 89 1.2 CALM 0 0 0 0 1015.9 1015.6 0.0
04/07:30am 19.0 21.6 17.5 91 0.9 CALM 0 0 0 0 1016.1 1015.8 0.0
04/07:00am 18.2 20.7 18.2 100 0.0 N 2 7 1 4 1015.9 1015.6 0.0
04/06:51am 18.0 20.8 18.0 100 0.0 CALM 0 0 0 0 1015.7 1015.3 0.0
04/06:30am 17.9 20.7 17.9 100 0.0 CALM 0 0 0 0 1015.5 1015.1 0.0
04/06:00am 18.1 20.6 18.1 100 0.0 SE 2 7 1 4 1015.4 1015.0 0.0
04/05:53am 18.1 20.6 18.1 100 0.0 SSE 2 7 1 4 1015.3 1014.9 0.0
04/05:44am 17.9 20.7 17.9 100 0.0 CALM 0 0 0 0 1015.3 1014.9 0.0
04/05:30am 17.9 20.7 17.9 100 0.0 CALM 0 0 0 0 1015.1 1014.7 0.0
04/05:16am 18.1 21.0 18.1 100 0.0 CALM 0 0 0 0 1015.3 1014.9 0.0
04/05:01am 18.1 21.0 18.1 100 0.0 CALM 0 0 0 0 1015.4 1015.0 0.0
04/05:00am 18.1 21.0 18.1 100 0.0 CALM 0 0 0 0 1015.3 1014.9 0.0
04/04:51am 18.1 21.0 18.1 100 0.0 CALM 0 0 0 0 1015.3 1014.9 0.0
04/04:36am 18.1 21.0 18.1 100 0.0 CALM 0 0 0 0 1015.5 1015.1 0.0
04/04:30am 18.0 20.8 18.0 100 0.0 CALM 0 0 0 0 1015.5 1015.1 0.0
04/04:00am 18.1 19.8 18.1 100 0.0 SSE 6 7 3 4 1015.5 1015.1 0.0
04/03:30am 18.2 20.0 18.2 100 0.0 SSE 6 7 3 4 1015.6 1015.2 0.0
04/03:00am 18.3 20.1 18.3 100 0.0 SSW 6 7 3 4 1015.8 1015.4 0.0
04/02:32am 18.2 20.0 18.2 100 0.0 SSW 6 7 3 4 1015.9 1015.6 0.0
04/02:30am 18.2 20.0 18.2 100 0.0 SSW 6 7 3 4 1015.9 1015.6 0.0
04/02:21am 18.2 19.8 18.2 100 0.0 SSW 7 9 4 5 1016.0 1015.7 0.0
04/02:00am 18.3 19.9 18.3 100 0.0 SSW 7 9 4 5 1016.1 1015.8 0.0
04/01:30am 18.3 20.8 18.1 99 0.1 S 2 7 1 4 1016.2 1015.9 0.0
04/01:00am 18.8 21.5 17.8 94 0.6 CALM 0 0 0 0 1016.5 1016.2 0.0
04/12:30am 19.0 20.9 16.8 87 1.3 E 2 9 1 5 1016.6 1016.3 0.0
04/12:27am 19.1 21.1 16.9 87 1.3 E 2 9 1 5 1016.6 1016.3 0.0
04/12:00am 19.3 21.4 16.3 83 1.8 CALM 0 0 0 0 1016.7 1016.4 0.0
 
Date/Time
EDT
Temp
°C
App
Temp
°C
Dew
Point
°C
Rel
Hum
%
Delta-T
°C
Wind Press
QNH
hPa
Press
MSL
hPa
Rain since
9am
mm
Dir  Spd
km/h
Gust
km/h
Spd
kts
Gust
kts
03/11:30pm 19.2 20.3 15.7 80 2.1 ESE 4 7 2 4 1016.8 1016.5 0.0
03/11:24pm 19.3 20.2 16.0 81 2.0 SE 6 7 3 4 1016.8 1016.5 0.0
03/11:00pm 19.3 19.9 15.8 80 2.1 SSE 7 9 4 5 1016.7 1016.4 0.0
03/10:57pm 19.3 19.9 15.8 80 2.1 SSE 7 9 4 5 1016.7 1016.4 0.0
03/10:30pm 19.2 19.8 15.7 80 2.1 SE 7 9 4 5 1016.5 1016.2 0.0
03/10:00pm 19.3 19.4 15.6 79 2.2 SE 9 11 5 6 1016.5 1016.2 0.0
03/09:30pm 19.3 19.4 15.4 78 2.3 SE 9 11 5 6 1016.3 1016.0 0.0
03/09:00pm 19.0 19.4 15.3 79 2.2 SSE 7 9 4 5 1016.0 1015.7 0.0
03/08:30pm 19.0 19.3 14.9 77 2.4 SE 7 11 4 6 1015.9 1015.6 0.0
03/08:00pm 19.6 19.1 15.0 75 2.7 E 11 15 6 8 1015.6 1015.2 0.0
03/07:30pm 20.2 18.5 14.8 71 3.2 E 17 22 9 12 1015.2 1014.8 0.0
03/07:00pm 21.0 18.7 14.2 65 4.0 ENE 19 22 10 12 1014.8 1014.4 0.0
03/06:30pm 21.5 19.0 14.2 63 4.3 E 20 28 11 15 1014.4 1014.0 0.0
03/06:00pm 22.0 19.5 14.1 61 4.6 ENE 20 28 11 15 1014.1 1013.7 0.0
03/05:30pm 22.6 19.6 13.7 57 5.2 ENE 22 30 12 16 1013.8 1013.4 0.0
03/05:00pm 22.8 19.7 13.3 55 5.5 E 22 30 12 16 1013.7 1013.3 0.0
03/04:30pm 23.0 19.8 13.2 54 5.7 ENE 22 32 12 17 1014.0 1013.6 0.0
03/04:00pm 23.9 20.7 14.3 55 5.7 ENE 24 33 13 18 1013.8 1013.4 0.0
03/03:30pm 23.4 20.0 13.8 54 5.6 NE 24 33 13 18 1014.1 1013.7 0.0
03/03:00pm 23.5 20.1 13.7 54 5.7 NE 24 33 13 18 1014.4 1014.0 0.0
03/02:30pm 25.2 23.0 14.9 52 6.2 NE 20 30 11 16 1014.6 1014.2 0.0
03/02:00pm 24.7 22.8 15.1 55 5.8 ENE 19 28 10 15 1014.6 1014.2 0.0
03/01:30pm 23.4 21.7 14.7 58 5.2 ENE 17 22 9 12 1015.0 1014.6 0.0
03/01:00pm 23.8 22.2 15.0 57 5.3 ENE 17 24 9 13 1015.5 1015.1 0.0
03/12:30pm 23.6 22.5 15.4 60 4.9 E 15 22 8 12 1015.7 1015.3 0.0
03/12:00pm 22.6 21.5 16.4 68 3.8 ESE 17 20 9 11 1016.2 1015.9 0.0
03/11:30am 21.0 19.9 15.3 70 3.4 SE 15 19 8 10 1016.3 1016.0 0.0
03/11:00am 21.4 21.6 15.7 70 3.4 ESE 9 15 5 8 1016.6 1016.3 0.0
03/10:38am 20.5 20.9 15.3 72 3.1 ENE 7 11 4 6 1016.7 1016.4 0.0
03/10:30am 20.4 20.8 15.2 72 3.1 ENE 7 11 4 6 1016.5 1016.2 0.0
03/10:00am 20.3 21.0 15.5 74 2.9 ENE 6 9 3 5 1016.8 1016.5 0.0
03/09:35am 20.1 20.1 15.3 74 2.8 NE 9 11 5 6 1016.7 1016.4 0.0
03/09:30am 20.1 20.1 15.3 74 2.8 ENE 9 13 5 7 1016.6 1016.3 0.0
03/09:00am 19.6 20.3 15.5 77 2.4 ENE 6 7 3 4 1016.6 1016.3 0.0
03/08:30am 19.3 20.2 16.0 81 2.0 SSE 6 11 3 6 1016.5 1016.2 0.0
03/08:20am 19.0 19.8 15.9 82 1.8 SSE 6 9 3 5 1016.5 1016.2 0.0
03/08:00am 18.6 20.1 16.6 88 1.2 SE 4 9 2 5 1016.5 1016.2 0.0
03/07:41am 18.2 20.4 16.4 89 1.1 CALM 0 0 0 0 1016.3 1016.0 0.0
03/07:30am 18.1 20.4 16.8 92 0.8 CALM 0 0 0 0 1016.2 1015.9 0.0
03/07:27am 18.1 20.4 16.8 92 0.8 CALM 0 0 0 0 1016.2 1015.9 0.0
03/07:22am 18.0 20.3 16.7 92 0.8 CALM 0 0 0 0 1016.2 1015.9 0.0
03/07:00am 17.8 18.8 16.3 91 0.9 SSE 6 7 3 4 1015.9 1015.6 0.0
03/06:36am 18.1 18.7 15.9 87 1.3 SE 7 11 4 6 1015.6 1015.2 0.0
03/06:30am 18.4 19.1 15.5 83 1.7 SSE 6 9 3 5 1015.6 1015.2 0.0
03/06:00am 18.4 20.2 15.5 83 1.7 CALM 0 0 0 0 1015.2 1014.8 0.0
03/05:50am 18.4 20.2 15.6 84 1.7 CALM 0 0 0 0 1015.1 1014.7 0.0
03/05:30am 18.3 19.0 15.6 84 1.6 SSE 6 9 3 5 1014.8 1014.4 0.0
03/05:25am 18.4 19.1 15.6 84 1.7 SSE 6 9 3 5 1014.8 1014.4 0.0
03/05:00am 18.3 18.7 15.4 83 1.7 SSE 7 11 4 6 1014.3 1013.9 0.0
03/04:30am 18.5 18.6 15.4 82 1.8 S 9 13 5 7 1014.1 1013.7 0.0
03/04:00am 18.6 18.6 15.3 81 1.9 S 9 15 5 8 1014.0 1013.6 0.0
03/03:30am 18.7 18.0 15.4 81 1.9 S 13 17 7 9 1013.9 1013.5 0.0
03/03:00am 18.7 18.7 15.2 80 2.1 SSW 9 15 5 8 1014.0 1013.6 0.0
03/02:30am 18.7 18.7 15.2 80 2.1 SSW 9 13 5 7 1014.2 1013.8 0.0
03/02:00am 18.7 18.3 15.2 80 2.1 S 11 13 6 7 1014.5 1014.1 0.0
03/01:30am 18.7 18.3 15.2 80 2.1 S 11 15 6 8 1014.5 1014.1 0.0
03/01:00am 18.9 18.1 15.2 79 2.2 S 13 17 7 9 1014.9 1014.5 0.0
03/12:36am 19.0 18.2 15.1 78 2.3 S 13 20 7 11 1015.2 1014.8 0.0
03/12:30am 19.0 18.2 15.1 78 2.3 S 13 20 7 11 1015.2 1014.8 0.0
03/12:00am 19.1 17.6 15.2 78 2.3 S 17 24 9 13 1015.1 1014.7 0.0
 
Date/Time
EDT
Temp
°C
App
Temp
°C
Dew
Point
°C
Rel
Hum
%
Delta-T
°C
Wind Press
QNH
hPa
Press
MSL
hPa
Rain since
9am
mm
Dir  Spd
km/h
Gust
km/h
Spd
kts
Gust
kts
02/11:37pm 19.2 17.3 15.3 78 2.3 S 19 24 10 13 1015.1 1014.7 0.0
02/11:30pm 19.3 17.5 15.4 78 2.3 S 19 24 10 13 1015.1 1014.7 0.0
02/11:00pm 19.3 17.3 15.4 78 2.3 S 20 28 11 15 1015.1 1014.7 0.0
02/10:30pm 19.5 17.2 15.8 79 2.2 S 22 33 12 18 1015.1 1014.7 0.0
02/10:00pm 19.6 18.4 16.1 80 2.1 S 17 26 9 14 1014.8 1014.4 0.0
02/09:30pm 19.8 17.5 16.6 82 1.9 S 24 30 13 16 1014.5 1014.1 0.0
02/09:00pm 20.2 18.6 17.4 84 1.7 S 22 32 12 17 1014.0 1013.6 0.0
02/08:30pm 20.5 19.7 17.9 85 1.6 SSE 19 26 10 14 1013.4 1013.0 0.0
02/08:00pm 21.0 20.2 18.4 85 1.6 SSE 20 30 11 16 1012.5 1012.2 0.0
02/07:30pm 21.6 19.9 18.0 80 2.2 S 24 32 13 17 1011.8 1011.5 0.0
02/07:00pm 22.5 20.6 17.6 74 3.0 S 24 32 13 17 1011.3 1011.0 0.0
02/06:30pm 23.4 19.8 17.2 68 3.8 S 32 41 17 22 1010.3 1010.0 0.0
02/06:00pm 25.4 21.0 15.1 53 6.2 SSE 32 44 17 24 1009.6 1009.3 0.0
02/05:30pm 27.6 22.7 12.4 39 8.9 S 30 41 16 22 1009.1 1008.8 0.0
02/05:10pm 29.5 23.2 9.1 28 11.4 WSW 32 44 17 24 1008.2 1007.9 0.0
02/05:00pm 33.0 25.7 5.5 18 14.8 WNW 33 48 18 26 1007.7 1007.4 0.0
02/04:44pm 33.0 25.5 4.7 17 15.0 W 33 52 18 28 1007.5 1007.1 0.0
02/04:30pm 32.9 25.4 6.2 19 14.5 W 35 52 19 28 1007.6 1007.3 0.0
02/04:00pm 32.3 25.9 5.0 18 14.5 WNW 28 44 15 24 1007.6 1007.3 0.0
02/03:30pm 33.0 25.5 4.7 17 15.0 WNW 33 44 18 24 1007.7 1007.4 0.0
02/03:00pm 33.7 27.3 5.3 17 15.3 WSW 28 39 15 21 1007.4 1007.0 0.0
02/02:30pm 34.9 26.1 3.5 14 16.5 W 39 54 21 29 1007.1 1006.7 0.0
02/02:00pm 35.1 26.9 2.6 13 16.9 W 35 54 19 29 1006.8 1006.4 0.0
02/01:42pm 34.9 27.2 3.5 14 16.5 W 33 48 18 26 1006.5 1006.1 0.0
02/01:30pm 35.1 26.9 2.6 13 16.8 W 35 52 19 28 1006.8 1006.4 0.0
02/01:00pm 34.3 27.5 3.0 14 16.3 W 28 46 15 25 1006.8 1006.4 0.0
02/12:52pm 33.5 25.6 2.4 14 15.9 W 33 52 18 28 1006.6 1006.2 0.0
02/12:30pm 34.5 26.6 2.1 13 16.6 WSW 33 46 18 25 1006.6 1006.2 0.0
02/12:19pm 34.1 27.2 2.8 14 16.2 W 28 52 15 28 1006.6 1006.2 0.0
02/12:00pm 32.6 28.5 6.0 19 14.4 W 17 28 9 15 1007.0 1006.6 0.0
02/11:30am 31.2 28.1 5.6 20 13.6 SW 11 20 6 11 1007.5 1007.1 0.0
02/11:00am 31.3 25.8 4.2 18 14.1 WSW 22 32 12 17 1007.6 1007.3 0.0
02/10:30am 29.4 25.8 4.8 21 12.8 WSW 13 26 7 14 1007.7 1007.4 0.0
02/10:00am 29.0 24.8 5.8 23 12.2 W 17 24 9 13 1007.7 1007.4 0.0
02/09:30am 28.2 23.8 7.4 27 11.2 NW 20 28 11 15 1007.8 1007.5 0.0
02/09:00am 26.5 21.9 6.5 28 10.5 NW 20 24 11 13 1007.8 1007.5 0.0
02/08:30am 25.0 20.7 7.2 32 9.4 NW 19 22 10 12 1007.9 1007.6 0.0
02/08:00am 23.0 19.1 8.7 40 7.7 NW 19 24 10 13 1007.9 1007.6 0.0
02/07:30am 21.1 17.9 10.0 49 6.0 NW 17 20 9 11 1007.7 1007.4 0.0
02/07:00am 18.7 16.3 11.5 63 4.0 NW 15 17 8 9 1007.6 1007.3 0.0
02/06:30am 15.9 14.9 12.3 79 2.0 NNW 9 9 5 5 1007.5 1007.1 0.0
02/06:00am 13.8 12.1 11.3 85 1.3 N 11 15 6 8 1007.3 1006.9 0.0
02/05:30am 13.4 11.9 12.0 91 0.8 WNW 11 13 6 7 1006.8 1006.4 0.0
02/05:00am 13.4 14.4 13.2 99 0.1 CALM 0 6 0 3 1006.5 1006.1 0.0
02/04:30am 13.8 14.9 13.6 99 0.1 CALM 0 0 0 0 1006.3 1005.9 0.0
02/04:00am 14.5 15.9 14.3 99 0.1 CALM 0 0 0 0 1006.4 1006.0 0.0
02/03:30am 14.2 15.4 13.9 98 0.2 CALM 0 0 0 0 1006.2 1005.8 0.0
02/03:00am 14.4 15.6 13.9 97 0.3 CALM 0 0 0 0 1006.4 1006.0 0.0
02/02:30am 15.4 17.0 14.9 97 0.3 CALM 0 0 0 0 1006.6 1006.2 0.0
02/02:00am 15.6 17.3 15.1 97 0.3 CALM 0 0 0 0 1006.7 1006.3 0.0
02/01:30am 16.2 18.3 16.2 100 0.0 CALM 0 0 0 0 1007.0 1006.6 0.0
02/01:00am 15.4 17.1 15.2 99 0.1 CALM 0 0 0 0 1007.1 1006.7 0.0
02/12:30am 15.2 16.7 14.7 97 0.3 CALM 0 0 0 0 1007.2 1006.8 0.0
02/12:00am 15.3 15.5 14.3 94 0.6 SSW 6 7 3 4 1007.4 1007.0 0.0
 
Date/Time
EDT
Temp
°C
App
Temp
°C
Dew
Point
°C
Rel
Hum
%
Delta-T
°C
Wind Press
QNH
hPa
Press
MSL
hPa
Rain since
9am
mm
Dir  Spd
km/h
Gust
km/h
Spd
kts
Gust
kts
01/11:30pm 16.6 17.5 16.1 97 0.3 SW 6 19 3 10 1007.5 1007.1 0.0
01/11:00pm 17.4 19.3 15.7 90 1.0 CALM 0 0 0 0 1007.6 1007.3 0.0
01/10:30pm 18.1 19.9 15.4 84 1.6 CALM 0 0 0 0 1007.6 1007.3 0.0
01/10:00pm 19.1 19.6 15.6 80 2.1 SSW 7 9 4 5 1007.5 1007.1 0.0
01/09:30pm 20.2 20.1 16.0 77 2.5 SSE 11 13 6 7 1007.1 1006.7 0.0
01/09:00pm 21.4 19.7 14.8 66 3.9 SSE 17 20 9 11 1006.6 1006.2 0.0
01/08:30pm 22.8 19.8 12.4 52 5.9 S 20 24 11 13 1006.2 1005.8 0.0
01/08:00pm 22.0 20.6 12.3 54 5.5 S 11 20 6 11 1005.6 1005.2 0.0
01/07:30pm 25.5 24.2 11.3 41 8.1 SSE 9 11 5 6 1005.2 1004.8 0.0
01/07:00pm 26.4 23.9 9.7 35 9.3 SE 13 15 7 8 1004.8 1004.4 0.0
01/06:30pm 28.4 26.3 9.6 31 10.5 ESE 11 15 6 8 1004.5 1004.1 0.0
01/06:00pm 28.8 25.9 9.5 30 10.8 E 15 19 8 10 1004.2 1003.8 0.0
01/05:30pm 29.2 26.1 10.3 31 10.7 E 17 24 9 13 1003.9 1003.5 0.0

Other Formats:

Comma delimited format used in spreadsheet applications
http://www.bom.gov.au/fwo/IDN60801/IDN60801.94750.axf

JavaScript Object Notation format (JSON) in row-major order
http://www.bom.gov.au/fwo/IDN60801/IDN60801.94750.json